sensor_id;sensor_type;location;lat;lon;timestamp;P1;durP1;ratioP1;P2;durP2;ratioP2
7583;SDS011;3833;41.764;26.204;2023-05-29T00:00:58;13.47;;;9.03;;
7583;SDS011;3833;41.764;26.204;2023-05-29T00:03:26;9.90;;;8.83;;
7583;SDS011;3833;41.764;26.204;2023-05-29T00:05:53;14.23;;;9.97;;
7583;SDS011;3833;41.764;26.204;2023-05-29T00:08:19;11.47;;;10.27;;
7583;SDS011;3833;41.764;26.204;2023-05-29T00:10:46;18.23;;;10.57;;
7583;SDS011;3833;41.764;26.204;2023-05-29T00:13:13;14.30;;;10.67;;
7583;SDS011;3833;41.764;26.204;2023-05-29T00:15:40;12.70;;;10.00;;
7583;SDS011;3833;41.764;26.204;2023-05-29T00:18:08;15.53;;;10.17;;
7583;SDS011;3833;41.764;26.204;2023-05-29T00:20:35;13.73;;;10.23;;
7583;SDS011;3833;41.764;26.204;2023-05-29T00:23:03;14.37;;;10.13;;
7583;SDS011;3833;41.764;26.204;2023-05-29T00:25:31;13.47;;;10.13;;
7583;SDS011;3833;41.764;26.204;2023-05-29T00:27:58;13.10;;;9.37;;
7583;SDS011;3833;41.764;26.204;2023-05-29T00:30:25;12.13;;;10.53;;
7583;SDS011;3833;41.764;26.204;2023-05-29T00:32:52;13.50;;;10.03;;
7583;SDS011;3833;41.764;26.204;2023-05-29T00:35:20;11.60;;;9.47;;
7583;SDS011;3833;41.764;26.204;2023-05-29T00:37:47;13.63;;;10.30;;
7583;SDS011;3833;41.764;26.204;2023-05-29T00:40:14;16.70;;;10.87;;
7583;SDS011;3833;41.764;26.204;2023-05-29T00:42:41;13.23;;;9.80;;
7583;SDS011;3833;41.764;26.204;2023-05-29T00:45:08;15.73;;;9.33;;
7583;SDS011;3833;41.764;26.204;2023-05-29T00:47:36;12.30;;;8.67;;
7583;SDS011;3833;41.764;26.204;2023-05-29T00:50:03;15.27;;;8.83;;
7583;SDS011;3833;41.764;26.204;2023-05-29T00:52:32;12.83;;;8.40;;
7583;SDS011;3833;41.764;26.204;2023-05-29T00:54:59;11.87;;;8.30;;
7583;SDS011;3833;41.764;26.204;2023-05-29T00:57:27;10.30;;;7.30;;
7583;SDS011;3833;41.764;26.204;2023-05-29T00:59:55;14.60;;;6.70;;
7583;SDS011;3833;41.764;26.204;2023-05-29T01:02:22;8.23;;;6.57;;
7583;SDS011;3833;41.764;26.204;2023-05-29T01:04:49;9.07;;;6.20;;
7583;SDS011;3833;41.764;26.204;2023-05-29T01:07:19;10.30;;;6.97;;
7583;SDS011;3833;41.764;26.204;2023-05-29T01:09:48;10.53;;;6.43;;
7583;SDS011;3833;41.764;26.204;2023-05-29T01:12:17;11.73;;;6.60;;
7583;SDS011;3833;41.764;26.204;2023-05-29T01:14:53;8.37;;;5.37;;
7583;SDS011;3833;41.764;26.204;2023-05-29T01:17:32;7.57;;;6.70;;
7583;SDS011;3833;41.764;26.204;2023-05-29T01:20:09;8.47;;;5.83;;
7583;SDS011;3833;41.764;26.204;2023-05-29T01:25:42;8.97;;;5.60;;
7583;SDS011;3833;41.764;26.204;2023-05-29T01:28:20;8.23;;;6.07;;
7583;SDS011;3833;41.764;26.204;2023-05-29T01:30:47;8.47;;;6.37;;
7583;SDS011;3833;41.764;26.204;2023-05-29T01:33:16;11.10;;;6.07;;
7583;SDS011;3833;41.764;26.204;2023-05-29T01:35:43;13.77;;;6.40;;
7583;SDS011;3833;41.764;26.204;2023-05-29T01:38:10;10.40;;;7.17;;
7583;SDS011;3833;41.764;26.204;2023-05-29T01:40:37;9.73;;;7.27;;
7583;SDS011;3833;41.764;26.204;2023-05-29T01:43:04;8.93;;;7.70;;
7583;SDS011;3833;41.764;26.204;2023-05-29T01:45:33;10.53;;;7.17;;
7583;SDS011;3833;41.764;26.204;2023-05-29T01:48:00;10.83;;;7.33;;
7583;SDS011;3833;41.764;26.204;2023-05-29T01:50:27;10.00;;;7.43;;
7583;SDS011;3833;41.764;26.204;2023-05-29T01:52:54;11.23;;;7.20;;
7583;SDS011;3833;41.764;26.204;2023-05-29T01:55:21;13.20;;;7.10;;
7583;SDS011;3833;41.764;26.204;2023-05-29T01:57:48;10.83;;;7.00;;
7583;SDS011;3833;41.764;26.204;2023-05-29T02:00:16;9.07;;;6.77;;
7583;SDS011;3833;41.764;26.204;2023-05-29T02:02:45;10.13;;;7.27;;
7583;SDS011;3833;41.764;26.204;2023-05-29T02:05:12;11.03;;;6.53;;
7583;SDS011;3833;41.764;26.204;2023-05-29T02:07:39;8.63;;;6.40;;
7583;SDS011;3833;41.764;26.204;2023-05-29T02:10:06;8.63;;;6.47;;
7583;SDS011;3833;41.764;26.204;2023-05-29T02:12:33;8.80;;;6.23;;
7583;SDS011;3833;41.764;26.204;2023-05-29T02:14:59;8.83;;;6.20;;
7583;SDS011;3833;41.764;26.204;2023-05-29T02:17:26;10.23;;;6.53;;
7583;SDS011;3833;41.764;26.204;2023-05-29T02:19:54;10.43;;;6.80;;
7583;SDS011;3833;41.764;26.204;2023-05-29T02:22:21;7.47;;;6.00;;
7583;SDS011;3833;41.764;26.204;2023-05-29T02:24:48;12.13;;;7.13;;
7583;SDS011;3833;41.764;26.204;2023-05-29T02:27:15;8.53;;;6.90;;
7583;SDS011;3833;41.764;26.204;2023-05-29T02:29:42;12.63;;;7.50;;
7583;SDS011;3833;41.764;26.204;2023-05-29T02:32:09;12.03;;;7.27;;
7583;SDS011;3833;41.764;26.204;2023-05-29T02:34:36;12.80;;;7.97;;
7583;SDS011;3833;41.764;26.204;2023-05-29T02:37:05;9.50;;;6.60;;
7583;SDS011;3833;41.764;26.204;2023-05-29T02:39:32;14.17;;;7.90;;
7583;SDS011;3833;41.764;26.204;2023-05-29T02:41:59;9.53;;;7.37;;
7583;SDS011;3833;41.764;26.204;2023-05-29T02:44:25;11.30;;;7.23;;
7583;SDS011;3833;41.764;26.204;2023-05-29T02:46:52;10.63;;;8.03;;
7583;SDS011;3833;41.764;26.204;2023-05-29T02:49:19;11.33;;;7.90;;
7583;SDS011;3833;41.764;26.204;2023-05-29T02:51:46;12.73;;;8.50;;
7583;SDS011;3833;41.764;26.204;2023-05-29T02:54:14;11.73;;;7.70;;
7583;SDS011;3833;41.764;26.204;2023-05-29T02:56:41;11.87;;;8.17;;
7583;SDS011;3833;41.764;26.204;2023-05-29T02:59:08;9.13;;;7.20;;
7583;SDS011;3833;41.764;26.204;2023-05-29T03:01:35;10.37;;;8.20;;
7583;SDS011;3833;41.764;26.204;2023-05-29T03:04:02;12.03;;;8.50;;
7583;SDS011;3833;41.764;26.204;2023-05-29T03:06:29;12.27;;;7.93;;
7583;SDS011;3833;41.764;26.204;2023-05-29T03:08:57;11.37;;;8.50;;
7583;SDS011;3833;41.764;26.204;2023-05-29T03:11:26;9.53;;;7.70;;
7583;SDS011;3833;41.764;26.204;2023-05-29T03:13:54;13.63;;;8.50;;
7583;SDS011;3833;41.764;26.204;2023-05-29T03:16:20;12.67;;;8.60;;
7583;SDS011;3833;41.764;26.204;2023-05-29T03:18:47;10.63;;;7.60;;
7583;SDS011;3833;41.764;26.204;2023-05-29T03:21:15;10.57;;;7.50;;
7583;SDS011;3833;41.764;26.204;2023-05-29T03:23:42;13.43;;;7.33;;
7583;SDS011;3833;41.764;26.204;2023-05-29T03:26:09;10.37;;;7.07;;
7583;SDS011;3833;41.764;26.204;2023-05-29T03:28:39;10.73;;;7.43;;
7583;SDS011;3833;41.764;26.204;2023-05-29T03:31:05;10.10;;;7.00;;
7583;SDS011;3833;41.764;26.204;2023-05-29T03:33:33;11.07;;;7.60;;
7583;SDS011;3833;41.764;26.204;2023-05-29T03:35:59;9.17;;;6.90;;
7583;SDS011;3833;41.764;26.204;2023-05-29T03:38:26;12.27;;;6.93;;
7583;SDS011;3833;41.764;26.204;2023-05-29T03:40:53;8.73;;;6.53;;
7583;SDS011;3833;41.764;26.204;2023-05-29T03:43:20;7.83;;;6.53;;
7583;SDS011;3833;41.764;26.204;2023-05-29T03:45:49;12.73;;;7.87;;
7583;SDS011;3833;41.764;26.204;2023-05-29T03:48:15;8.27;;;6.43;;
7583;SDS011;3833;41.764;26.204;2023-05-29T03:50:42;8.57;;;6.97;;
7583;SDS011;3833;41.764;26.204;2023-05-29T03:53:10;8.73;;;7.33;;
7583;SDS011;3833;41.764;26.204;2023-05-29T03:55:37;10.20;;;6.70;;
7583;SDS011;3833;41.764;26.204;2023-05-29T03:58:04;8.90;;;6.93;;
7583;SDS011;3833;41.764;26.204;2023-05-29T04:00:31;10.23;;;6.90;;
7583;SDS011;3833;41.764;26.204;2023-05-29T04:03:00;7.10;;;6.00;;
7583;SDS011;3833;41.764;26.204;2023-05-29T04:05:27;8.90;;;7.07;;
7583;SDS011;3833;41.764;26.204;2023-05-29T04:07:54;8.13;;;6.67;;
7583;SDS011;3833;41.764;26.204;2023-05-29T04:10:21;11.03;;;6.53;;
7583;SDS011;3833;41.764;26.204;2023-05-29T04:12:49;10.83;;;6.60;;
7583;SDS011;3833;41.764;26.204;2023-05-29T04:15:17;7.40;;;6.60;;
7583;SDS011;3833;41.764;26.204;2023-05-29T04:17:44;8.77;;;6.70;;
7583;SDS011;3833;41.764;26.204;2023-05-29T04:20:12;9.37;;;6.80;;
7583;SDS011;3833;41.764;26.204;2023-05-29T04:22:40;7.93;;;6.90;;
7583;SDS011;3833;41.764;26.204;2023-05-29T04:25:07;9.93;;;6.00;;
7583;SDS011;3833;41.764;26.204;2023-05-29T04:27:34;10.40;;;7.03;;
7583;SDS011;3833;41.764;26.204;2023-05-29T04:30:02;7.37;;;6.43;;
7583;SDS011;3833;41.764;26.204;2023-05-29T04:32:30;9.27;;;6.30;;
7583;SDS011;3833;41.764;26.204;2023-05-29T04:34:58;8.93;;;6.43;;
7583;SDS011;3833;41.764;26.204;2023-05-29T04:37:29;10.70;;;6.77;;
7583;SDS011;3833;41.764;26.204;2023-05-29T04:39:57;7.83;;;6.90;;
7583;SDS011;3833;41.764;26.204;2023-05-29T04:42:24;8.17;;;6.27;;
7583;SDS011;3833;41.764;26.204;2023-05-29T04:44:52;8.40;;;6.40;;
7583;SDS011;3833;41.764;26.204;2023-05-29T04:47:19;9.00;;;5.90;;
7583;SDS011;3833;41.764;26.204;2023-05-29T04:49:47;11.50;;;6.00;;
7583;SDS011;3833;41.764;26.204;2023-05-29T04:52:15;7.67;;;6.23;;
7583;SDS011;3833;41.764;26.204;2023-05-29T04:54:43;9.57;;;7.30;;
7583;SDS011;3833;41.764;26.204;2023-05-29T04:57:10;10.60;;;7.33;;
7583;SDS011;3833;41.764;26.204;2023-05-29T04:59:37;9.23;;;7.30;;
7583;SDS011;3833;41.764;26.204;2023-05-29T05:02:04;7.83;;;6.80;;
7583;SDS011;3833;41.764;26.204;2023-05-29T05:04:32;8.57;;;6.97;;
7583;SDS011;3833;41.764;26.204;2023-05-29T05:07:00;9.37;;;7.03;;
7583;SDS011;3833;41.764;26.204;2023-05-29T05:09:27;6.83;;;6.03;;
7583;SDS011;3833;41.764;26.204;2023-05-29T05:11:55;9.37;;;6.47;;
7583;SDS011;3833;41.764;26.204;2023-05-29T05:14:22;11.93;;;6.10;;
7583;SDS011;3833;41.764;26.204;2023-05-29T05:16:50;8.83;;;6.47;;
7583;SDS011;3833;41.764;26.204;2023-05-29T05:19:17;7.10;;;5.70;;
7583;SDS011;3833;41.764;26.204;2023-05-29T05:21:44;8.03;;;5.97;;
7583;SDS011;3833;41.764;26.204;2023-05-29T05:24:11;12.57;;;7.40;;
7583;SDS011;3833;41.764;26.204;2023-05-29T05:26:38;7.20;;;6.50;;
7583;SDS011;3833;41.764;26.204;2023-05-29T05:29:07;10.20;;;6.10;;
7583;SDS011;3833;41.764;26.204;2023-05-29T05:31:33;8.10;;;6.77;;
7583;SDS011;3833;41.764;26.204;2023-05-29T05:34:00;6.87;;;6.17;;
7583;SDS011;3833;41.764;26.204;2023-05-29T05:36:27;7.53;;;5.83;;
7583;SDS011;3833;41.764;26.204;2023-05-29T05:38:54;8.43;;;6.27;;
7583;SDS011;3833;41.764;26.204;2023-05-29T05:41:21;9.03;;;7.00;;
7583;SDS011;3833;41.764;26.204;2023-05-29T05:43:49;7.70;;;6.63;;
7583;SDS011;3833;41.764;26.204;2023-05-29T05:46:17;8.07;;;6.33;;
7583;SDS011;3833;41.764;26.204;2023-05-29T05:48:44;7.60;;;6.63;;
7583;SDS011;3833;41.764;26.204;2023-05-29T05:51:11;8.73;;;6.37;;
7583;SDS011;3833;41.764;26.204;2023-05-29T05:53:39;9.43;;;6.57;;
7583;SDS011;3833;41.764;26.204;2023-05-29T05:56:06;10.43;;;6.70;;
7583;SDS011;3833;41.764;26.204;2023-05-29T05:58:33;11.30;;;7.10;;
7583;SDS011;3833;41.764;26.204;2023-05-29T06:01:00;8.17;;;6.83;;
7583;SDS011;3833;41.764;26.204;2023-05-29T06:03:28;9.27;;;7.97;;
7583;SDS011;3833;41.764;26.204;2023-05-29T06:05:58;7.07;;;6.47;;
7583;SDS011;3833;41.764;26.204;2023-05-29T06:08:25;9.30;;;7.40;;
7583;SDS011;3833;41.764;26.204;2023-05-29T06:10:52;8.10;;;7.30;;
7583;SDS011;3833;41.764;26.204;2023-05-29T06:13:19;9.30;;;6.93;;
7583;SDS011;3833;41.764;26.204;2023-05-29T06:15:45;8.30;;;7.50;;
7583;SDS011;3833;41.764;26.204;2023-05-29T06:18:12;14.40;;;8.37;;
7583;SDS011;3833;41.764;26.204;2023-05-29T06:20:41;10.80;;;8.00;;
7583;SDS011;3833;41.764;26.204;2023-05-29T06:23:08;10.90;;;7.43;;
7583;SDS011;3833;41.764;26.204;2023-05-29T06:25:35;7.93;;;7.13;;
7583;SDS011;3833;41.764;26.204;2023-05-29T06:28:02;11.47;;;7.87;;
7583;SDS011;3833;41.764;26.204;2023-05-29T06:30:31;9.33;;;7.67;;
7583;SDS011;3833;41.764;26.204;2023-05-29T06:32:58;9.03;;;7.97;;
7583;SDS011;3833;41.764;26.204;2023-05-29T06:35:25;11.07;;;8.17;;
7583;SDS011;3833;41.764;26.204;2023-05-29T06:37:53;9.13;;;8.13;;
7583;SDS011;3833;41.764;26.204;2023-05-29T06:40:21;11.27;;;8.13;;
7583;SDS011;3833;41.764;26.204;2023-05-29T06:42:48;8.77;;;7.87;;
7583;SDS011;3833;41.764;26.204;2023-05-29T06:45:15;9.63;;;7.83;;
7583;SDS011;3833;41.764;26.204;2023-05-29T06:47:43;10.77;;;8.07;;
7583;SDS011;3833;41.764;26.204;2023-05-29T06:50:10;9.10;;;7.97;;
7583;SDS011;3833;41.764;26.204;2023-05-29T06:52:37;9.77;;;7.13;;
7583;SDS011;3833;41.764;26.204;2023-05-29T06:55:06;9.97;;;7.20;;
7583;SDS011;3833;41.764;26.204;2023-05-29T06:57:35;7.67;;;6.97;;
7583;SDS011;3833;41.764;26.204;2023-05-29T07:00:02;10.47;;;7.57;;
7583;SDS011;3833;41.764;26.204;2023-05-29T07:02:31;10.47;;;7.50;;
7583;SDS011;3833;41.764;26.204;2023-05-29T07:04:58;7.23;;;6.47;;
7583;SDS011;3833;41.764;26.204;2023-05-29T07:07:25;11.13;;;8.57;;
7583;SDS011;3833;41.764;26.204;2023-05-29T07:09:51;9.73;;;7.33;;
7583;SDS011;3833;41.764;26.204;2023-05-29T07:12:21;7.50;;;6.73;;
7583;SDS011;3833;41.764;26.204;2023-05-29T07:14:48;9.43;;;8.03;;
7583;SDS011;3833;41.764;26.204;2023-05-29T07:17:15;9.33;;;7.10;;
7583;SDS011;3833;41.764;26.204;2023-05-29T07:19:42;9.90;;;6.93;;
7583;SDS011;3833;41.764;26.204;2023-05-29T07:22:09;7.03;;;6.33;;
7583;SDS011;3833;41.764;26.204;2023-05-29T07:24:35;7.03;;;6.33;;
7583;SDS011;3833;41.764;26.204;2023-05-29T07:27:02;8.23;;;6.70;;
7583;SDS011;3833;41.764;26.204;2023-05-29T07:29:31;9.33;;;6.33;;
7583;SDS011;3833;41.764;26.204;2023-05-29T07:31:58;7.57;;;6.33;;
7583;SDS011;3833;41.764;26.204;2023-05-29T07:34:25;8.83;;;6.57;;
7583;SDS011;3833;41.764;26.204;2023-05-29T07:36:59;11.53;;;7.53;;
7583;SDS011;3833;41.764;26.204;2023-05-29T07:39:27;8.27;;;6.87;;
7583;SDS011;3833;41.764;26.204;2023-05-29T07:41:54;8.27;;;6.83;;
7583;SDS011;3833;41.764;26.204;2023-05-29T07:44:21;8.17;;;6.73;;
7583;SDS011;3833;41.764;26.204;2023-05-29T07:46:49;8.57;;;7.60;;
7583;SDS011;3833;41.764;26.204;2023-05-29T07:49:16;10.97;;;7.40;;
7583;SDS011;3833;41.764;26.204;2023-05-29T07:51:43;9.00;;;7.47;;
7583;SDS011;3833;41.764;26.204;2023-05-29T07:54:10;8.40;;;6.73;;
7583;SDS011;3833;41.764;26.204;2023-05-29T07:56:37;9.90;;;7.67;;
7583;SDS011;3833;41.764;26.204;2023-05-29T07:59:06;10.63;;;7.10;;
7583;SDS011;3833;41.764;26.204;2023-05-29T08:01:34;8.47;;;7.27;;
7583;SDS011;3833;41.764;26.204;2023-05-29T08:04:02;8.53;;;7.27;;
7583;SDS011;3833;41.764;26.204;2023-05-29T08:06:29;8.50;;;7.30;;
7583;SDS011;3833;41.764;26.204;2023-05-29T08:08:57;7.97;;;7.17;;
7583;SDS011;3833;41.764;26.204;2023-05-29T08:11:24;8.87;;;6.93;;
7583;SDS011;3833;41.764;26.204;2023-05-29T08:13:51;8.03;;;7.23;;
7583;SDS011;3833;41.764;26.204;2023-05-29T08:16:18;7.87;;;7.07;;
7583;SDS011;3833;41.764;26.204;2023-05-29T08:18:45;8.07;;;6.70;;
7583;SDS011;3833;41.764;26.204;2023-05-29T08:21:13;9.17;;;7.97;;
7583;SDS011;3833;41.764;26.204;2023-05-29T08:23:43;9.10;;;8.13;;
7583;SDS011;3833;41.764;26.204;2023-05-29T08:26:09;9.27;;;8.07;;
7583;SDS011;3833;41.764;26.204;2023-05-29T08:28:37;9.40;;;8.40;;
7583;SDS011;3833;41.764;26.204;2023-05-29T08:31:04;11.53;;;8.90;;
7583;SDS011;3833;41.764;26.204;2023-05-29T08:33:31;15.40;;;9.13;;
7583;SDS011;3833;41.764;26.204;2023-05-29T08:35:58;8.20;;;7.40;;
7583;SDS011;3833;41.764;26.204;2023-05-29T08:38:27;11.43;;;8.17;;
7583;SDS011;3833;41.764;26.204;2023-05-29T08:40:55;12.00;;;8.70;;
7583;SDS011;3833;41.764;26.204;2023-05-29T08:43:23;10.73;;;9.37;;
7583;SDS011;3833;41.764;26.204;2023-05-29T08:45:52;12.00;;;9.67;;
7583;SDS011;3833;41.764;26.204;2023-05-29T08:48:20;11.67;;;9.30;;
7583;SDS011;3833;41.764;26.204;2023-05-29T08:50:50;10.50;;;9.40;;
7583;SDS011;3833;41.764;26.204;2023-05-29T08:53:19;13.70;;;9.60;;
7583;SDS011;3833;41.764;26.204;2023-05-29T08:55:48;12.77;;;9.47;;
7583;SDS011;3833;41.764;26.204;2023-05-29T08:58:16;10.40;;;8.43;;
7583;SDS011;3833;41.764;26.204;2023-05-29T09:00:44;9.37;;;8.40;;
7583;SDS011;3833;41.764;26.204;2023-05-29T09:03:12;10.63;;;8.27;;
7583;SDS011;3833;41.764;26.204;2023-05-29T09:05:39;10.00;;;9.00;;
7583;SDS011;3833;41.764;26.204;2023-05-29T09:08:06;12.03;;;9.90;;
7583;SDS011;3833;41.764;26.204;2023-05-29T09:10:37;10.17;;;9.07;;
7583;SDS011;3833;41.764;26.204;2023-05-29T09:13:07;11.07;;;10.03;;
7583;SDS011;3833;41.764;26.204;2023-05-29T09:15:35;12.13;;;9.83;;
7583;SDS011;3833;41.764;26.204;2023-05-29T09:18:04;13.03;;;9.87;;
7583;SDS011;3833;41.764;26.204;2023-05-29T09:20:31;12.90;;;9.97;;
7583;SDS011;3833;41.764;26.204;2023-05-29T09:22:58;10.33;;;9.30;;
7583;SDS011;3833;41.764;26.204;2023-05-29T09:25:26;10.63;;;9.53;;
7583;SDS011;3833;41.764;26.204;2023-05-29T09:27:56;13.40;;;9.83;;
7583;SDS011;3833;41.764;26.204;2023-05-29T09:30:32;14.57;;;11.83;;
7583;SDS011;3833;41.764;26.204;2023-05-29T09:33:00;16.53;;;11.10;;
7583;SDS011;3833;41.764;26.204;2023-05-29T09:35:32;13.67;;;10.93;;
7583;SDS011;3833;41.764;26.204;2023-05-29T09:38:00;11.80;;;10.47;;
7583;SDS011;3833;41.764;26.204;2023-05-29T09:40:30;10.10;;;9.10;;
7583;SDS011;3833;41.764;26.204;2023-05-29T09:43:01;13.03;;;8.50;;
7583;SDS011;3833;41.764;26.204;2023-05-29T09:45:33;11.17;;;7.10;;
7583;SDS011;3833;41.764;26.204;2023-05-29T09:48:04;12.47;;;7.80;;
7583;SDS011;3833;41.764;26.204;2023-05-29T09:50:32;20.80;;;8.83;;
7583;SDS011;3833;41.764;26.204;2023-05-29T09:53:00;12.53;;;5.97;;
7583;SDS011;3833;41.764;26.204;2023-05-29T09:55:27;9.07;;;5.97;;
7583;SDS011;3833;41.764;26.204;2023-05-29T09:57:57;7.43;;;4.90;;
7583;SDS011;3833;41.764;26.204;2023-05-29T10:00:23;6.57;;;4.47;;
7583;SDS011;3833;41.764;26.204;2023-05-29T10:02:52;6.53;;;3.07;;
7583;SDS011;3833;41.764;26.204;2023-05-29T10:05:19;4.30;;;2.93;;
7583;SDS011;3833;41.764;26.204;2023-05-29T10:07:46;7.93;;;3.50;;
7583;SDS011;3833;41.764;26.204;2023-05-29T10:10:14;4.10;;;2.53;;
7583;SDS011;3833;41.764;26.204;2023-05-29T10:12:43;8.57;;;3.40;;
7583;SDS011;3833;41.764;26.204;2023-05-29T10:15:11;6.90;;;3.57;;
7583;SDS011;3833;41.764;26.204;2023-05-29T10:17:39;5.23;;;3.17;;
7583;SDS011;3833;41.764;26.204;2023-05-29T10:20:14;3.03;;;2.73;;
7583;SDS011;3833;41.764;26.204;2023-05-29T10:22:44;7.73;;;3.47;;
7583;SDS011;3833;41.764;26.204;2023-05-29T10:25:13;4.23;;;2.67;;
7583;SDS011;3833;41.764;26.204;2023-05-29T10:27:40;5.87;;;3.20;;
7583;SDS011;3833;41.764;26.204;2023-05-29T10:30:09;3.73;;;2.30;;
7583;SDS011;3833;41.764;26.204;2023-05-29T10:32:44;6.87;;;2.90;;
7583;SDS011;3833;41.764;26.204;2023-05-29T10:35:25;9.27;;;3.73;;
7583;SDS011;3833;41.764;26.204;2023-05-29T10:37:56;4.07;;;3.10;;
7583;SDS011;3833;41.764;26.204;2023-05-29T10:40:27;5.53;;;3.40;;
7583;SDS011;3833;41.764;26.204;2023-05-29T10:42:53;8.53;;;3.67;;
7583;SDS011;3833;41.764;26.204;2023-05-29T10:53:58;8.23;;;3.90;;
7583;SDS011;3833;41.764;26.204;2023-05-29T10:56:27;5.47;;;3.00;;
7583;SDS011;3833;41.764;26.204;2023-05-29T10:58:58;4.73;;;3.47;;
7583;SDS011;3833;41.764;26.204;2023-05-29T11:01:27;5.87;;;3.50;;
7583;SDS011;3833;41.764;26.204;2023-05-29T11:06:53;6.03;;;3.50;;
7583;SDS011;3833;41.764;26.204;2023-05-29T11:09:27;3.67;;;3.37;;
7583;SDS011;3833;41.764;26.204;2023-05-29T11:14:53;4.60;;;3.57;;
7583;SDS011;3833;41.764;26.204;2023-05-29T11:17:28;4.17;;;3.37;;
7583;SDS011;3833;41.764;26.204;2023-05-29T11:19:55;3.67;;;3.03;;
7583;SDS011;3833;41.764;26.204;2023-05-29T11:22:26;4.90;;;3.70;;
7583;SDS011;3833;41.764;26.204;2023-05-29T11:24:54;4.40;;;3.37;;
7583;SDS011;3833;41.764;26.204;2023-05-29T11:27:23;5.47;;;3.77;;
7583;SDS011;3833;41.764;26.204;2023-05-29T11:29:50;7.73;;;4.37;;
7583;SDS011;3833;41.764;26.204;2023-05-29T11:32:19;4.30;;;3.73;;
7583;SDS011;3833;41.764;26.204;2023-05-29T11:34:47;5.73;;;3.57;;
7583;SDS011;3833;41.764;26.204;2023-05-29T11:37:14;3.67;;;3.10;;
7583;SDS011;3833;41.764;26.204;2023-05-29T11:39:43;4.77;;;4.27;;
7583;SDS011;3833;41.764;26.204;2023-05-29T11:42:10;4.30;;;3.60;;
7583;SDS011;3833;41.764;26.204;2023-05-29T11:44:38;6.10;;;3.60;;
7583;SDS011;3833;41.764;26.204;2023-05-29T11:47:06;7.60;;;3.90;;
7583;SDS011;3833;41.764;26.204;2023-05-29T11:49:34;7.37;;;3.67;;
7583;SDS011;3833;41.764;26.204;2023-05-29T11:52:05;6.07;;;4.07;;
7583;SDS011;3833;41.764;26.204;2023-05-29T11:54:33;6.60;;;4.33;;
7583;SDS011;3833;41.764;26.204;2023-05-29T11:57:02;4.93;;;4.50;;
7583;SDS011;3833;41.764;26.204;2023-05-29T11:59:30;8.73;;;4.17;;
7583;SDS011;3833;41.764;26.204;2023-05-29T12:01:58;6.33;;;4.43;;
7583;SDS011;3833;41.764;26.204;2023-05-29T12:04:25;4.90;;;4.50;;
7583;SDS011;3833;41.764;26.204;2023-05-29T12:06:52;8.73;;;5.10;;
7583;SDS011;3833;41.764;26.204;2023-05-29T12:09:25;6.30;;;5.37;;
7583;SDS011;3833;41.764;26.204;2023-05-29T12:11:53;7.67;;;5.13;;
7583;SDS011;3833;41.764;26.204;2023-05-29T12:14:22;8.17;;;5.33;;
7583;SDS011;3833;41.764;26.204;2023-05-29T12:16:49;6.30;;;5.70;;
7583;SDS011;3833;41.764;26.204;2023-05-29T12:19:16;10.80;;;5.50;;
7583;SDS011;3833;41.764;26.204;2023-05-29T12:21:43;7.07;;;5.63;;
7583;SDS011;3833;41.764;26.204;2023-05-29T12:24:10;6.93;;;5.70;;
7583;SDS011;3833;41.764;26.204;2023-05-29T12:26:37;7.57;;;5.73;;
7583;SDS011;3833;41.764;26.204;2023-05-29T12:29:04;6.60;;;5.90;;
7583;SDS011;3833;41.764;26.204;2023-05-29T12:31:33;8.27;;;5.40;;
7583;SDS011;3833;41.764;26.204;2023-05-29T12:34:00;7.47;;;5.80;;
7583;SDS011;3833;41.764;26.204;2023-05-29T12:36:28;7.83;;;6.73;;
7583;SDS011;3833;41.764;26.204;2023-05-29T12:38:55;9.53;;;6.97;;
7583;SDS011;3833;41.764;26.204;2023-05-29T12:41:24;7.67;;;6.17;;
7583;SDS011;3833;41.764;26.204;2023-05-29T12:43:52;7.03;;;6.33;;
7583;SDS011;3833;41.764;26.204;2023-05-29T12:46:20;9.30;;;6.80;;
7583;SDS011;3833;41.764;26.204;2023-05-29T12:48:48;8.33;;;7.20;;
7583;SDS011;3833;41.764;26.204;2023-05-29T12:51:17;6.97;;;6.27;;
7583;SDS011;3833;41.764;26.204;2023-05-29T12:53:45;7.70;;;6.90;;
7583;SDS011;3833;41.764;26.204;2023-05-29T12:56:12;10.43;;;7.03;;
7583;SDS011;3833;41.764;26.204;2023-05-29T12:58:38;7.50;;;6.70;;
7583;SDS011;3833;41.764;26.204;2023-05-29T13:01:05;8.17;;;7.37;;
7583;SDS011;3833;41.764;26.204;2023-05-29T13:03:39;13.30;;;7.90;;
7583;SDS011;3833;41.764;26.204;2023-05-29T13:06:07;8.73;;;7.37;;
7583;SDS011;3833;41.764;26.204;2023-05-29T13:08:34;8.87;;;7.10;;
7583;SDS011;3833;41.764;26.204;2023-05-29T13:11:01;7.67;;;6.97;;
7583;SDS011;3833;41.764;26.204;2023-05-29T13:13:28;8.90;;;8.00;;
7583;SDS011;3833;41.764;26.204;2023-05-29T13:15:55;7.30;;;6.37;;
7583;SDS011;3833;41.764;26.204;2023-05-29T13:18:22;7.57;;;6.77;;
7583;SDS011;3833;41.764;26.204;2023-05-29T13:20:49;8.43;;;7.10;;
7583;SDS011;3833;41.764;26.204;2023-05-29T13:23:17;6.80;;;6.00;;
7583;SDS011;3833;41.764;26.204;2023-05-29T13:25:44;11.33;;;7.40;;
7583;SDS011;3833;41.764;26.204;2023-05-29T13:28:13;8.47;;;6.03;;
7583;SDS011;3833;41.764;26.204;2023-05-29T13:30:40;8.93;;;5.10;;
7583;SDS011;3833;41.764;26.204;2023-05-29T13:33:07;7.17;;;5.00;;
7583;SDS011;3833;41.764;26.204;2023-05-29T13:35:34;6.77;;;5.37;;
7583;SDS011;3833;41.764;26.204;2023-05-29T13:38:01;4.87;;;4.47;;
7583;SDS011;3833;41.764;26.204;2023-05-29T13:40:31;8.67;;;5.50;;
7583;SDS011;3833;41.764;26.204;2023-05-29T13:42:58;6.43;;;5.23;;
7583;SDS011;3833;41.764;26.204;2023-05-29T13:45:25;6.60;;;4.90;;
7583;SDS011;3833;41.764;26.204;2023-05-29T13:47:54;5.20;;;4.70;;
7583;SDS011;3833;41.764;26.204;2023-05-29T13:50:21;8.30;;;4.80;;
7583;SDS011;3833;41.764;26.204;2023-05-29T13:52:49;7.43;;;5.17;;
7583;SDS011;3833;41.764;26.204;2023-05-29T13:55:15;6.97;;;5.40;;
7583;SDS011;3833;41.764;26.204;2023-05-29T13:57:44;6.97;;;4.53;;
7583;SDS011;3833;41.764;26.204;2023-05-29T14:00:11;6.23;;;4.87;;
7583;SDS011;3833;41.764;26.204;2023-05-29T14:02:39;7.63;;;4.93;;
7583;SDS011;3833;41.764;26.204;2023-05-29T14:05:06;5.77;;;4.77;;
7583;SDS011;3833;41.764;26.204;2023-05-29T14:07:34;6.47;;;5.23;;
7583;SDS011;3833;41.764;26.204;2023-05-29T14:10:02;8.17;;;5.53;;
7583;SDS011;3833;41.764;26.204;2023-05-29T14:12:29;6.30;;;4.87;;
7583;SDS011;3833;41.764;26.204;2023-05-29T14:14:58;7.63;;;5.53;;
7583;SDS011;3833;41.764;26.204;2023-05-29T14:17:25;7.73;;;5.17;;
7583;SDS011;3833;41.764;26.204;2023-05-29T14:19:52;5.00;;;4.60;;
7583;SDS011;3833;41.764;26.204;2023-05-29T14:22:20;7.60;;;5.33;;
7583;SDS011;3833;41.764;26.204;2023-05-29T14:24:47;6.17;;;5.10;;
7583;SDS011;3833;41.764;26.204;2023-05-29T14:27:14;7.27;;;5.63;;
7583;SDS011;3833;41.764;26.204;2023-05-29T14:29:42;6.77;;;5.73;;
7583;SDS011;3833;41.764;26.204;2023-05-29T14:32:12;6.00;;;4.43;;
7583;SDS011;3833;41.764;26.204;2023-05-29T14:34:39;6.77;;;5.10;;
7583;SDS011;3833;41.764;26.204;2023-05-29T14:37:06;6.50;;;5.30;;
7583;SDS011;3833;41.764;26.204;2023-05-29T14:39:33;6.97;;;5.60;;
7583;SDS011;3833;41.764;26.204;2023-05-29T14:42:00;7.17;;;5.67;;
7583;SDS011;3833;41.764;26.204;2023-05-29T14:44:27;6.43;;;5.73;;
7583;SDS011;3833;41.764;26.204;2023-05-29T14:46:55;7.60;;;5.57;;
7583;SDS011;3833;41.764;26.204;2023-05-29T14:49:23;9.00;;;6.50;;
7583;SDS011;3833;41.764;26.204;2023-05-29T14:51:53;9.40;;;6.87;;
7583;SDS011;3833;41.764;26.204;2023-05-29T14:54:20;7.67;;;6.53;;
7583;SDS011;3833;41.764;26.204;2023-05-29T14:56:47;8.07;;;6.50;;
7583;SDS011;3833;41.764;26.204;2023-05-29T14:59:14;8.07;;;6.50;;
7583;SDS011;3833;41.764;26.204;2023-05-29T15:01:41;8.23;;;6.93;;
7583;SDS011;3833;41.764;26.204;2023-05-29T15:04:09;8.63;;;6.23;;
7583;SDS011;3833;41.764;26.204;2023-05-29T15:06:38;6.53;;;5.67;;
7583;SDS011;3833;41.764;26.204;2023-05-29T15:09:05;7.90;;;5.60;;
7583;SDS011;3833;41.764;26.204;2023-05-29T15:11:32;9.23;;;6.00;;
7583;SDS011;3833;41.764;26.204;2023-05-29T15:13:59;6.93;;;6.23;;
7583;SDS011;3833;41.764;26.204;2023-05-29T15:16:26;6.13;;;5.20;;